createdAt,value
2022-11-16T00:01:15.196Z,64.47
2022-11-16T00:03:43.596Z,64.42
2022-11-16T00:06:12.987Z,64.18
2022-11-16T00:08:43.321Z,64.27
2022-11-16T00:11:18.001Z,64.11
2022-11-16T00:13:45.880Z,64.45
2022-11-16T00:16:15.968Z,64.81
2022-11-16T00:18:44.639Z,65.09
2022-11-16T00:21:12.413Z,65.12
2022-11-16T00:23:40.354Z,64.73
2022-11-16T00:26:10.195Z,64.70
2022-11-16T00:28:38.328Z,64.81
2022-11-16T00:31:07.315Z,64.89
2022-11-16T00:33:35.186Z,64.56
2022-11-16T00:36:05.112Z,64.53
2022-11-16T00:38:33.516Z,64.72
2022-11-16T00:41:01.689Z,65.01
2022-11-16T00:43:30.280Z,65.20
2022-11-16T00:45:58.236Z,65.68
2022-11-16T00:48:26.477Z,66.28
2022-11-16T00:50:54.504Z,66.46
2022-11-16T00:53:22.733Z,66.70
2022-11-16T00:55:51.466Z,66.83
2022-11-16T00:58:20.899Z,67.03
2022-11-16T01:00:54.581Z,66.96
2022-11-16T01:03:22.436Z,67.30
2022-11-16T01:05:50.236Z,67.30
2022-11-16T01:08:18.045Z,67.86
2022-11-16T01:10:45.873Z,67.90
2022-11-16T01:13:13.720Z,67.90
2022-11-16T01:15:48.439Z,67.81
2022-11-16T01:18:16.239Z,67.64
2022-11-16T01:20:43.996Z,68.06
2022-11-16T01:23:12.470Z,68.00
2022-11-16T01:25:40.518Z,67.78
2022-11-16T01:28:08.450Z,67.67
2022-11-16T01:30:48.603Z,67.99
2022-11-16T01:33:16.495Z,67.87
2022-11-16T01:35:44.461Z,68.32
2022-11-16T01:38:13.634Z,68.38
2022-11-16T01:40:41.426Z,68.30
2022-11-16T01:43:28.033Z,68.34
2022-11-16T01:46:01.961Z,68.43
2022-11-16T01:48:32.037Z,68.33
2022-11-16T01:51:00.200Z,68.03
2022-11-16T01:53:30.385Z,68.18
2022-11-16T01:55:58.461Z,67.95
2022-11-16T01:58:39.057Z,67.63
2022-11-16T02:01:17.734Z,67.66
2022-11-16T02:03:48.617Z,67.66
2022-11-16T02:06:28.113Z,67.79
2022-11-16T02:09:39.070Z,68.07
2022-11-16T02:12:21.708Z,68.07
2022-11-16T02:15:31.213Z,67.94
2022-11-16T02:18:38.310Z,68.08
2022-11-16T02:21:06.609Z,67.80
2022-11-16T02:24:02.888Z,67.70
2022-11-16T02:26:52.620Z,67.80
2022-11-16T02:29:34.997Z,67.81
2022-11-16T02:32:12.497Z,67.78
2022-11-16T02:34:53.297Z,67.85
2022-11-16T02:37:23.746Z,68.14
2022-11-16T02:39:56.084Z,68.29
2022-11-16T02:42:30.409Z,68.25
2022-11-16T02:44:59.251Z,68.33
2022-11-16T02:47:32.040Z,68.50
2022-11-16T02:50:04.763Z,69.10
2022-11-16T02:52:32.579Z,69.18
2022-11-16T02:55:00.482Z,69.12
2022-11-16T02:58:05.929Z,68.81
2022-11-16T03:00:57.226Z,68.81
2022-11-16T03:03:37.913Z,69.21
2022-11-16T03:06:23.500Z,69.41
2022-11-16T03:09:00.068Z,69.47
2022-11-16T03:11:50.650Z,69.38
2022-11-16T03:14:20.833Z,69.61
2022-11-16T03:16:54.835Z,69.71
2022-11-16T03:19:35.121Z,69.88
2022-11-16T03:22:22.152Z,69.98
2022-11-16T03:24:50.860Z,70.33
2022-11-16T03:27:45.519Z,70.04
2022-11-16T03:30:14.445Z,70.19
2022-11-16T03:32:59.869Z,70.06
2022-11-16T03:35:31.702Z,70.51
2022-11-16T03:38:00.014Z,70.17
2022-11-16T03:40:30.777Z,69.87
2022-11-16T03:43:01.217Z,70.06
2022-11-16T03:45:30.735Z,70.03
2022-11-16T03:48:00.275Z,69.85
2022-11-16T03:50:28.421Z,69.89
2022-11-16T03:52:56.836Z,69.63
2022-11-16T03:55:24.903Z,69.39
2022-11-16T03:57:53.945Z,69.48
2022-11-16T04:00:22.401Z,69.70
2022-11-16T04:02:54.224Z,69.65
2022-11-16T04:05:42.016Z,69.79
2022-11-16T04:08:34.867Z,69.97
2022-11-16T04:11:22.159Z,69.65
2022-11-16T04:14:09.781Z,69.76
2022-11-16T04:16:58.212Z,69.72
2022-11-16T04:19:44.715Z,69.77
2022-11-16T04:22:36.544Z,69.49
2022-11-16T04:25:09.933Z,70.16
2022-11-16T04:27:56.450Z,69.85
2022-11-16T04:30:25.668Z,69.72
2022-11-16T04:33:12.495Z,69.85
2022-11-16T04:35:59.713Z,70.11
2022-11-16T04:38:27.848Z,70.56
2022-11-16T04:40:56.498Z,70.11
2022-11-16T04:43:25.017Z,70.08
2022-11-16T04:46:26.377Z,69.82
2022-11-16T04:48:55.798Z,70.03
2022-11-16T04:51:23.596Z,70.22
2022-11-16T04:53:51.506Z,69.84
2022-11-16T04:56:22.221Z,69.57
2022-11-16T04:58:51.042Z,69.90
2022-11-16T05:01:39.442Z,70.22
2022-11-16T05:04:08.121Z,70.08
2022-11-16T05:06:36.935Z,69.96
2022-11-16T05:09:05.459Z,69.73
2022-11-16T05:11:34.028Z,69.85
2022-11-16T05:14:02.625Z,69.61
2022-11-16T05:16:31.215Z,69.60
2022-11-16T05:19:17.816Z,69.86
2022-11-16T05:21:45.913Z,70.20
2022-11-16T05:24:32.866Z,70.14
2022-11-16T05:27:04.207Z,70.12
2022-11-16T05:29:32.936Z,70.07
2022-11-16T05:32:01.160Z,70.55
2022-11-16T05:34:29.375Z,70.55
2022-11-16T05:36:57.545Z,70.26
2022-11-16T05:39:25.999Z,70.61
2022-11-16T05:41:54.870Z,70.49
2022-11-16T05:44:24.197Z,70.28
2022-11-16T05:46:52.651Z,70.58
2022-11-16T05:49:20.808Z,70.64
2022-11-16T05:51:49.233Z,70.40
2022-11-16T05:54:24.761Z,70.51
2022-11-16T05:56:53.862Z,70.68
2022-11-16T05:59:23.141Z,70.51
2022-11-16T06:01:53.529Z,70.63
2022-11-16T06:04:24.210Z,70.73
2022-11-16T06:06:52.449Z,70.66
2022-11-16T06:09:20.340Z,70.31
2022-11-16T06:11:49.250Z,70.41
2022-11-16T06:14:17.403Z,70.61
2022-11-16T06:16:45.394Z,70.67
2022-11-16T06:19:13.424Z,70.69
2022-11-16T06:21:41.966Z,70.81
2022-11-16T06:24:14.785Z,70.91
2022-11-16T06:26:43.217Z,71.10
2022-11-16T06:29:11.029Z,70.95
2022-11-16T06:31:38.899Z,70.79
2022-11-16T06:34:08.397Z,70.88
2022-11-16T06:36:36.451Z,70.70
2022-11-16T06:39:04.697Z,70.66
2022-11-16T06:41:40.197Z,70.40
2022-11-16T06:44:09.767Z,70.25
2022-11-16T06:46:38.627Z,70.16
2022-11-16T06:49:06.553Z,69.91
2022-11-16T06:51:34.709Z,69.76
2022-11-16T06:54:02.613Z,69.67
2022-11-16T06:56:30.541Z,69.61
2022-11-16T06:58:58.897Z,69.51
2022-11-16T07:01:27.808Z,69.67
2022-11-16T07:04:00.545Z,69.86
2022-11-16T07:06:29.664Z,69.70
2022-11-16T07:08:57.916Z,69.95
2022-11-16T07:11:28.671Z,69.88
2022-11-16T07:13:57.866Z,69.78
2022-11-16T07:16:26.304Z,70.17
2022-11-16T07:18:59.269Z,70.25
2022-11-16T07:21:28.344Z,70.26
2022-11-16T07:23:56.521Z,70.53
2022-11-16T07:26:24.899Z,70.31
2022-11-16T07:29:01.554Z,70.42
2022-11-16T07:31:29.699Z,69.96
2022-11-16T07:34:26.981Z,69.87
2022-11-16T07:37:07.755Z,70.02
2022-11-16T07:39:44.753Z,69.84
2022-11-16T07:42:16.429Z,70.09
2022-11-16T07:45:03.702Z,70.26
2022-11-16T07:47:37.891Z,70.95
2022-11-16T07:50:07.708Z,70.83
2022-11-16T07:52:36.316Z,70.63
2022-11-16T07:55:11.023Z,70.20
2022-11-16T07:57:41.380Z,70.56
2022-11-16T08:00:09.649Z,70.66
2022-11-16T08:02:46.267Z,70.69
2022-11-16T08:05:18.724Z,70.18
2022-11-16T08:07:46.846Z,70.10
2022-11-16T08:10:15.270Z,70.32
2022-11-16T08:12:43.235Z,70.27
2022-11-16T08:15:12.087Z,70.67
2022-11-16T08:17:39.977Z,70.98
2022-11-16T08:20:09.700Z,70.96
2022-11-16T08:22:38.392Z,71.06
2022-11-16T08:25:07.747Z,70.85
2022-11-16T08:27:36.234Z,70.89
2022-11-16T08:30:09.769Z,71.01
2022-11-16T08:32:38.743Z,70.88
2022-11-16T08:35:07.397Z,70.99
2022-11-16T08:37:35.486Z,71.01
2022-11-16T08:40:03.825Z,71.07
2022-11-16T08:42:32.558Z,71.12
2022-11-16T08:45:00.851Z,71.23
2022-11-16T08:47:29.795Z,71.49
2022-11-16T08:49:59.742Z,71.33
2022-11-16T08:52:29.938Z,71.35
2022-11-16T08:54:58.736Z,71.31
2022-11-16T08:57:26.625Z,71.11
2022-11-16T08:59:57.942Z,71.15
2022-11-16T09:02:25.901Z,71.12
2022-11-16T09:04:54.588Z,71.30
2022-11-16T09:07:22.572Z,71.22
2022-11-16T09:09:50.479Z,70.93
2022-11-16T09:12:18.308Z,70.69
2022-11-16T09:14:46.115Z,71.07
2022-11-16T09:17:16.570Z,71.12
2022-11-16T09:19:48.103Z,71.03
2022-11-16T09:22:15.957Z,71.04
2022-11-16T09:24:43.732Z,70.93
2022-11-16T09:27:11.561Z,70.86
2022-11-16T09:29:39.364Z,71.58
2022-11-16T09:32:07.175Z,71.48
2022-11-16T09:34:35.586Z,71.34
2022-11-16T09:37:03.402Z,71.22
2022-11-16T09:39:32.543Z,71.20
2022-11-16T09:42:10.939Z,71.30
2022-11-16T09:44:46.471Z,71.64
2022-11-16T09:47:17.908Z,71.52
2022-11-16T09:49:55.711Z,71.56
2022-11-16T09:52:33.685Z,71.57
2022-11-16T09:55:06.558Z,71.67
2022-11-16T09:57:36.406Z,71.72
2022-11-16T10:00:25.498Z,71.07
2022-11-16T10:02:59.470Z,70.93
2022-11-16T10:05:57.500Z,71.19
2022-11-16T10:08:36.410Z,71.33
2022-11-16T10:11:35.553Z,71.36
2022-11-16T10:14:28.217Z,71.60
2022-11-16T10:17:15.851Z,71.80
2022-11-16T10:20:08.093Z,71.65
2022-11-16T10:22:46.318Z,71.21
2022-11-16T10:25:16.670Z,70.94
2022-11-16T10:28:08.995Z,70.88
2022-11-16T10:30:43.395Z,71.16
2022-11-16T10:33:15.829Z,71.12
2022-11-16T10:35:47.029Z,70.73
2022-11-16T10:38:17.545Z,71.04
2022-11-16T10:40:51.102Z,71.23
2022-11-16T10:43:27.337Z,71.24
2022-11-16T10:46:19.702Z,71.46
2022-11-16T10:48:58.977Z,71.36
2022-11-16T10:51:26.849Z,71.33
2022-11-16T10:53:56.003Z,71.37
2022-11-16T10:56:31.853Z,71.21
2022-11-16T10:59:00.506Z,70.79
2022-11-16T11:01:43.731Z,70.92
2022-11-16T11:04:22.369Z,70.86
2022-11-16T11:07:22.573Z,70.71
2022-11-16T11:09:53.836Z,70.80
2022-11-16T11:12:39.194Z,70.68
2022-11-16T11:15:13.452Z,70.83
2022-11-16T11:17:49.009Z,71.07
2022-11-16T11:20:17.037Z,71.08
2022-11-16T11:22:58.636Z,70.90
2022-11-16T11:25:33.568Z,70.19
2022-11-16T11:28:18.489Z,69.82
2022-11-16T11:31:25.750Z,70.13
2022-11-16T11:33:55.963Z,70.30
2022-11-16T11:36:28.697Z,70.16
2022-11-16T11:39:05.557Z,70.19
2022-11-16T11:41:43.983Z,70.46
2022-11-16T11:44:16.896Z,70.60
2022-11-16T11:47:50.340Z,70.49
2022-11-16T11:49:43.145Z,70.35
2022-11-16T11:52:18.750Z,70.82
2022-11-16T11:54:47.913Z,70.53
2022-11-16T11:57:20.740Z,70.66
2022-11-16T11:59:51.494Z,70.58
2022-11-16T12:02:34.568Z,70.51
2022-11-16T12:05:15.456Z,70.58
2022-11-16T12:07:55.521Z,70.93
2022-11-16T12:10:46.434Z,70.44
2022-11-16T12:13:23.301Z,70.53
2022-11-16T12:16:12.056Z,70.32
2022-11-16T12:18:48.178Z,70.46
2022-11-16T12:21:32.187Z,70.69
2022-11-16T12:24:14.728Z,70.43
2022-11-16T12:26:48.279Z,70.76
2022-11-16T12:29:26.957Z,71.11
2022-11-16T12:32:16.621Z,71.41
2022-11-16T12:35:08.889Z,71.85
2022-11-16T12:38:08.720Z,71.52
2022-11-16T12:40:58.512Z,71.28
2022-11-16T12:43:44.998Z,71.38
2022-11-16T12:46:19.549Z,71.42
2022-11-16T12:49:26.470Z,71.42
2022-11-16T12:52:10.112Z,71.81
2022-11-16T12:55:19.232Z,71.71
2022-11-16T12:57:59.216Z,71.50
2022-11-16T13:00:28.904Z,71.30
2022-11-16T13:03:09.574Z,71.58
2022-11-16T13:06:09.293Z,71.87
2022-11-16T13:08:40.060Z,71.93
2022-11-16T13:11:13.763Z,71.58
2022-11-16T13:13:48.068Z,71.91
2022-11-16T13:16:19.838Z,71.61
2022-11-16T13:18:47.624Z,71.75
2022-11-16T13:21:26.229Z,71.80
2022-11-16T13:24:00.038Z,71.51
2022-11-16T13:26:36.200Z,71.80
2022-11-16T13:29:07.189Z,71.58
2022-11-16T13:31:39.700Z,71.64
2022-11-16T13:34:14.898Z,71.66
2022-11-16T13:36:45.268Z,71.65
2022-11-16T13:39:22.183Z,71.45
2022-11-16T13:42:13.549Z,71.12
2022-11-16T13:44:41.457Z,70.74
2022-11-16T13:47:23.096Z,70.33
2022-11-16T13:50:01.744Z,70.22
2022-11-16T13:53:19.880Z,70.32
2022-11-16T13:55:33.607Z,70.21
2022-11-16T13:58:04.597Z,70.06
2022-11-16T14:00:40.440Z,69.92
2022-11-16T14:03:20.366Z,69.54
2022-11-16T14:05:49.571Z,69.89
2022-11-16T14:08:20.154Z,69.74
2022-11-16T14:10:50.915Z,69.59
2022-11-16T14:13:37.402Z,69.35
2022-11-16T14:16:29.154Z,69.31
2022-11-16T14:18:59.866Z,69.72
2022-11-16T14:22:00.153Z,69.66
2022-11-16T14:24:28.027Z,69.27
2022-11-16T14:27:30.447Z,69.81
2022-11-16T14:30:19.535Z,69.96
2022-11-16T14:32:50.437Z,70.31
2022-11-16T14:35:39.517Z,70.26
2022-11-16T14:38:17.047Z,70.45
2022-11-16T14:40:47.771Z,70.43
2022-11-16T14:43:22.048Z,70.68
2022-11-16T14:46:30.147Z,70.75
2022-11-16T14:48:59.542Z,70.68
2022-11-16T14:51:32.114Z,70.84
2022-11-16T14:54:03.347Z,70.69
2022-11-16T14:56:31.160Z,71.15
2022-11-16T14:59:01.868Z,71.27
2022-11-16T15:01:35.140Z,71.15
2022-11-16T15:04:10.611Z,70.74
2022-11-16T15:07:02.289Z,70.13
2022-11-16T15:09:36.433Z,70.30
2022-11-16T15:12:24.467Z,70.16
2022-11-16T15:14:53.628Z,70.17
2022-11-16T15:17:31.887Z,69.95
2022-11-16T15:20:23.078Z,70.10
2022-11-16T15:22:53.117Z,70.17
2022-11-16T15:25:26.973Z,70.59
2022-11-16T15:27:56.436Z,70.57
2022-11-16T15:30:33.293Z,70.92
2022-11-16T15:33:04.152Z,70.86
2022-11-16T15:35:33.593Z,70.54
2022-11-16T15:38:22.058Z,70.43
2022-11-16T15:40:54.977Z,70.36
2022-11-16T15:43:26.202Z,70.54
2022-11-16T15:45:54.197Z,70.89
2022-11-16T15:48:23.612Z,70.93
2022-11-16T15:51:13.858Z,71.25
2022-11-16T15:53:43.301Z,71.04
2022-11-16T15:56:20.669Z,70.90
2022-11-16T15:58:56.195Z,70.63
2022-11-16T16:01:25.867Z,70.66
2022-11-16T16:03:54.862Z,70.72
2022-11-16T16:06:44.324Z,70.76
2022-11-16T16:09:24.278Z,70.90
2022-11-16T16:11:53.317Z,71.08
2022-11-16T16:14:29.269Z,71.16
2022-11-16T16:16:58.793Z,71.51
2022-11-16T16:30:04.428Z,71.49
2022-11-16T16:32:34.831Z,71.35
2022-11-16T16:35:05.968Z,71.89
2022-11-16T16:37:35.997Z,71.56
2022-11-16T16:40:04.604Z,71.40
2022-11-16T16:42:32.332Z,71.45
2022-11-16T16:45:00.604Z,71.82
2022-11-16T16:47:28.496Z,71.82
2022-11-16T16:49:56.262Z,71.98
2022-11-16T16:52:24.086Z,71.45
2022-11-16T16:54:51.811Z,71.14
2022-11-16T16:57:19.709Z,71.16
2022-11-16T16:59:48.405Z,71.06
2022-11-16T17:02:17.226Z,71.43
2022-11-16T17:04:46.866Z,71.36
2022-11-16T17:07:15.977Z,71.64
2022-11-16T17:09:43.840Z,72.14
2022-11-16T17:12:12.264Z,71.81
2022-11-16T17:14:40.076Z,71.60
2022-11-16T17:17:07.786Z,71.68
2022-11-16T17:19:35.566Z,71.44
2022-11-16T17:22:03.713Z,71.38
2022-11-16T17:24:31.562Z,71.34
2022-11-16T17:26:59.364Z,71.61
2022-11-16T17:29:27.224Z,71.52
2022-11-16T17:31:55.107Z,71.44
2022-11-16T17:34:23.130Z,71.59
2022-11-16T17:36:51.031Z,71.66
2022-11-16T17:39:19.293Z,72.17
2022-11-16T17:41:47.045Z,72.60
2022-11-16T17:44:20.185Z,72.05
2022-11-16T17:46:49.658Z,71.27
2022-11-16T17:49:17.401Z,71.23
2022-11-16T17:51:45.698Z,71.00
2022-11-16T17:54:13.809Z,70.80
2022-11-16T17:56:50.449Z,70.97
2022-11-16T17:59:24.989Z,71.26
2022-11-16T18:02:06.119Z,71.05
2022-11-16T18:04:34.095Z,71.06
2022-11-16T18:07:13.688Z,70.79
2022-11-16T18:09:55.770Z,70.53
2022-11-16T18:12:38.343Z,70.81
2022-11-16T18:15:28.579Z,71.17
2022-11-16T18:21:02.200Z,71.51
2022-11-16T18:23:30.129Z,71.58
2022-11-16T18:25:58.413Z,71.85
2022-11-16T18:28:27.315Z,71.66
2022-11-16T18:31:02.924Z,72.04
2022-11-16T18:33:35.363Z,71.94
2022-11-16T18:36:04.859Z,72.00
2022-11-16T18:38:32.865Z,71.72
2022-11-16T18:41:16.887Z,71.53
2022-11-16T18:44:50.112Z,71.67
2022-11-16T18:47:21.077Z,72.09
2022-11-16T18:49:51.491Z,72.20
2022-11-16T18:52:19.492Z,71.91
2022-11-16T18:54:47.400Z,71.79
2022-11-16T18:57:15.156Z,71.97
2022-11-16T18:59:42.993Z,71.57
2022-11-16T19:02:13.296Z,71.28
2022-11-16T19:04:42.704Z,71.65
2022-11-16T19:07:11.765Z,71.63
2022-11-16T19:09:39.978Z,71.90
2022-11-16T19:12:07.811Z,72.09
2022-11-16T19:14:35.652Z,72.69
2022-11-16T19:17:05.073Z,72.68
2022-11-16T19:19:44.529Z,72.62
2022-11-16T19:22:14.726Z,71.89
2022-11-16T19:24:42.672Z,71.88
2022-11-16T19:27:10.784Z,71.88
2022-11-16T19:29:41.463Z,72.20
2022-11-16T19:32:09.309Z,72.09
2022-11-16T19:34:37.115Z,71.85
2022-11-16T19:53:11.164Z,72.49
2022-11-16T19:55:39.577Z,72.66
2022-11-16T19:58:07.511Z,72.32
2022-11-16T20:00:35.331Z,72.00
2022-11-16T20:03:03.166Z,71.89
2022-11-16T20:05:32.581Z,71.86
2022-11-16T20:08:00.515Z,71.74
2022-11-16T20:10:29.600Z,72.07
2022-11-16T20:12:58.284Z,71.69
2022-11-16T20:15:26.014Z,72.12
2022-11-16T20:17:53.795Z,71.78
2022-11-16T20:20:21.510Z,71.87
2022-11-16T20:22:50.801Z,71.80
2022-11-16T20:25:18.661Z,71.79
2022-11-16T20:27:46.793Z,71.57
2022-11-16T20:30:14.607Z,71.58
2022-11-16T20:32:42.349Z,71.55
2022-11-16T20:35:11.819Z,71.45
2022-11-16T20:37:43.259Z,71.77
2022-11-16T20:40:11.510Z,71.85
2022-11-16T20:42:39.299Z,72.04
2022-11-16T20:45:08.119Z,72.23
2022-11-16T20:47:35.825Z,72.30
2022-11-16T20:50:03.990Z,72.49
2022-11-16T20:52:38.170Z,72.74
2022-11-16T20:55:09.470Z,72.57
2022-11-16T20:57:37.257Z,72.78
2022-11-16T21:00:05.622Z,72.67
2022-11-16T21:02:33.417Z,73.05
2022-11-16T21:05:01.166Z,72.84
2022-11-16T21:07:28.998Z,72.79
2022-11-16T21:10:15.476Z,72.76
2022-11-16T21:13:01.804Z,72.86
2022-11-16T21:15:29.615Z,72.99
2022-11-16T21:17:57.422Z,73.12
2022-11-16T21:20:27.823Z,73.20
2022-11-16T21:22:56.033Z,73.08
2022-11-16T21:25:23.778Z,73.06
2022-11-16T21:27:51.587Z,72.86
2022-11-16T21:30:19.452Z,73.11
2022-11-16T21:32:47.217Z,73.23
2022-11-16T21:35:15.077Z,73.14
2022-11-16T21:37:42.810Z,73.54
2022-11-16T21:40:11.256Z,73.43
2022-11-16T21:42:38.977Z,73.07
2022-11-16T21:45:07.273Z,73.52
2022-11-16T21:47:35.012Z,73.20
2022-11-16T21:50:32.206Z,73.14
2022-11-16T21:52:50.410Z,73.30
2022-11-16T21:55:18.112Z,73.48
2022-11-16T21:57:45.844Z,73.59
2022-11-16T22:00:14.211Z,73.89
2022-11-16T22:02:41.921Z,73.41
2022-11-16T22:05:28.481Z,73.52
2022-11-16T22:07:56.414Z,73.45
2022-11-16T22:10:24.110Z,73.20
2022-11-16T22:12:51.808Z,73.33
2022-11-16T22:15:19.574Z,73.24
2022-11-16T22:17:47.340Z,73.18
2022-11-16T22:20:15.366Z,73.39
2022-11-16T22:22:43.360Z,73.41
2022-11-16T22:25:11.349Z,73.50
2022-11-16T22:28:05.677Z,73.36
2022-11-16T22:30:27.304Z,73.65
2022-11-16T22:32:55.069Z,73.58
2022-11-16T22:35:22.880Z,73.37
2022-11-16T22:37:50.669Z,73.29
2022-11-16T22:40:18.446Z,73.41
2022-11-16T22:42:46.136Z,73.38
2022-11-16T22:45:13.973Z,73.42
2022-11-16T22:47:41.916Z,73.76
2022-11-16T22:50:09.808Z,73.51
2022-11-16T22:52:37.491Z,73.83
2022-11-16T22:55:05.743Z,73.43
2022-11-16T22:57:33.454Z,73.39
2022-11-16T23:00:01.300Z,73.32
2022-11-16T23:02:29.099Z,73.30
2022-11-16T23:04:56.844Z,72.97
2022-11-16T23:07:24.623Z,72.79
2022-11-16T23:09:52.351Z,72.86
2022-11-16T23:12:38.716Z,72.93
2022-11-16T23:15:27.784Z,73.00
2022-11-16T23:17:55.547Z,73.11
2022-11-16T23:20:41.955Z,73.22
2022-11-16T23:23:36.424Z,73.37
2022-11-16T23:26:30.495Z,73.52
2022-11-16T23:28:58.281Z,73.01
2022-11-16T23:31:26.132Z,73.24
2022-11-16T23:33:53.952Z,72.98
2022-11-16T23:36:21.689Z,73.18
2022-11-16T23:38:49.420Z,73.41
2022-11-16T23:41:35.818Z,73.60
2022-11-16T23:44:04.136Z,73.60
2022-11-16T23:46:33.209Z,72.76
2022-11-16T23:49:00.960Z,72.79
2022-11-16T23:51:28.662Z,73.03
2022-11-16T23:53:57.045Z,73.13
2022-11-16T23:56:24.803Z,73.27
2022-11-16T23:58:56.269Z,72.80
